createdAt,value
2019-05-18T00:00:17.380Z,82.87
2019-05-18T00:01:17.404Z,83.18
2019-05-18T00:02:17.365Z,83.18
2019-05-18T00:03:17.348Z,82.91
2019-05-18T00:04:17.344Z,83.48
2019-05-18T00:05:17.327Z,83.42
2019-05-18T00:06:17.346Z,83.93
2019-05-18T00:07:17.308Z,83.93
2019-05-18T00:08:17.296Z,83.62
2019-05-18T00:09:17.295Z,83.73
2019-05-18T00:10:17.276Z,83.62
2019-05-18T00:11:17.287Z,83.42
2019-05-18T00:12:17.250Z,83.42
2019-05-18T00:13:17.248Z,82.87
2019-05-18T00:14:17.228Z,83.01
2019-05-18T00:15:17.219Z,82.26
2019-05-18T00:16:17.243Z,82.46
2019-05-18T00:17:24.931Z,83.52
2019-05-18T00:18:18.195Z,83.32
2019-05-18T00:19:17.177Z,83.11
2019-05-18T00:20:17.168Z,83.11
2019-05-18T00:21:17.181Z,83.42
2019-05-18T00:22:17.144Z,83.62
2019-05-18T00:23:17.133Z,82.91
2019-05-18T00:24:17.126Z,83.11
2019-05-18T00:25:17.119Z,83.22
2019-05-18T00:26:17.144Z,83.42
2019-05-18T00:27:17.090Z,83.01
2019-05-18T00:28:17.088Z,83.46
2019-05-18T00:29:17.069Z,83.01
2019-05-18T00:30:17.059Z,83.22
2019-05-18T00:31:17.077Z,83.52
2019-05-18T00:32:17.037Z,83.56
2019-05-18T00:33:17.024Z,83.66
2019-05-18T00:34:17.026Z,83.46
2019-05-18T00:35:17.005Z,83.56
2019-05-18T00:36:17.018Z,84.38
2019-05-18T00:37:16.983Z,84.17
2019-05-18T00:38:16.971Z,84.07
2019-05-18T00:39:16.965Z,84.58
2019-05-18T00:40:16.959Z,84.79
2019-05-18T00:41:16.969Z,84.58
2019-05-18T00:42:16.933Z,84.69
2019-05-18T00:43:16.922Z,84.79
2019-05-18T00:44:16.906Z,85.30
2019-05-18T00:45:16.900Z,85.10
2019-05-18T00:46:16.914Z,85.55
2019-05-18T00:47:16.879Z,85.55
2019-05-18T00:48:16.876Z,85.55
2019-05-18T00:49:16.854Z,85.30
2019-05-18T00:50:16.842Z,85.24
2019-05-18T00:51:16.867Z,85.24
2019-05-18T00:52:16.819Z,85.30
2019-05-18T00:53:16.812Z,85.20
2019-05-18T00:54:16.802Z,85.34
2019-05-18T00:55:16.785Z,85.03
2019-05-18T00:56:16.802Z,84.93
2019-05-18T00:57:16.782Z,85.44
2019-05-18T00:58:16.755Z,85.14
2019-05-18T00:59:16.749Z,85.44
2019-05-18T01:00:16.757Z,85.34
2019-05-18T01:01:16.753Z,85.34
2019-05-18T01:02:16.719Z,85.34
2019-05-18T01:03:16.704Z,85.34
2019-05-18T01:04:16.692Z,85.34
2019-05-18T01:05:16.681Z,85.55
2019-05-18T01:06:16.706Z,85.58
2019-05-18T01:07:16.660Z,85.79
2019-05-18T01:08:16.653Z,85.99
2019-05-18T01:09:16.643Z,85.75
2019-05-18T01:10:16.628Z,85.34
2019-05-18T01:11:16.642Z,85.20
2019-05-18T01:12:16.608Z,85.14
2019-05-18T01:13:16.611Z,84.83
2019-05-18T01:14:16.589Z,85.03
2019-05-18T01:15:16.612Z,85.24
2019-05-18T01:16:16.611Z,85.14
2019-05-18T01:17:16.553Z,84.52
2019-05-18T01:18:16.548Z,85.14
2019-05-18T01:19:16.534Z,84.63
2019-05-18T01:20:16.529Z,84.38
2019-05-18T01:21:16.544Z,84.69
2019-05-18T01:22:16.506Z,84.38
2019-05-18T01:23:16.488Z,84.17
2019-05-18T01:24:16.479Z,84.07
2019-05-18T01:25:16.462Z,84.52
2019-05-18T01:26:16.481Z,84.28
2019-05-18T01:27:16.447Z,84.07
2019-05-18T01:28:16.438Z,84.07
2019-05-18T01:29:16.424Z,84.24
2019-05-18T01:30:16.417Z,84.14
2019-05-18T01:31:16.434Z,83.11
2019-05-18T01:32:16.392Z,83.62
2019-05-18T01:33:16.384Z,83.76
2019-05-18T01:34:16.373Z,83.66
2019-05-18T01:35:16.358Z,83.66
2019-05-18T01:36:16.382Z,83.73
2019-05-18T01:37:16.345Z,83.76
2019-05-18T01:38:16.331Z,84.07
2019-05-18T01:39:16.316Z,83.93
2019-05-18T01:40:16.306Z,83.56
2019-05-18T01:41:16.324Z,83.83
2019-05-18T01:42:16.289Z,83.42
2019-05-18T01:43:16.293Z,83.46
2019-05-18T01:44:16.267Z,83.66
2019-05-18T01:45:17.618Z,83.56
2019-05-18T01:46:16.270Z,83.76
2019-05-18T01:47:16.235Z,83.36
2019-05-18T01:48:16.226Z,83.87
2019-05-18T01:49:16.208Z,84.17
2019-05-18T01:50:16.197Z,84.28
2019-05-18T01:51:16.234Z,83.97
2019-05-18T01:52:16.182Z,84.79
2019-05-18T01:53:16.170Z,84.48
2019-05-18T01:54:16.164Z,84.83
2019-05-18T01:55:16.147Z,84.93
2019-05-18T01:56:16.172Z,84.93
2019-05-18T01:57:16.133Z,85.24
2019-05-18T01:58:16.119Z,84.99
2019-05-18T01:59:16.104Z,84.63
2019-05-18T02:00:16.099Z,84.93
2019-05-18T02:01:16.107Z,85.14
2019-05-18T02:02:16.071Z,85.24
2019-05-18T02:03:16.061Z,85.14
2019-05-18T02:04:16.061Z,85.14
2019-05-18T02:05:16.042Z,85.20
2019-05-18T02:06:16.055Z,84.89
2019-05-18T02:07:16.018Z,85.34
2019-05-18T02:08:16.006Z,85.03
2019-05-18T02:09:15.997Z,85.24
2019-05-18T02:10:15.985Z,85.64
2019-05-18T02:11:15.999Z,85.75
2019-05-18T02:12:15.962Z,85.44
2019-05-18T02:13:15.957Z,85.34
2019-05-18T02:14:15.945Z,85.40
2019-05-18T02:15:15.939Z,85.14
2019-05-18T02:16:15.918Z,84.72
2019-05-18T02:17:15.937Z,84.72
2019-05-18T02:18:28.268Z,84.83
2019-05-18T02:19:16.891Z,84.72
2019-05-18T02:20:15.888Z,84.79
2019-05-18T02:21:15.875Z,84.79
2019-05-18T02:22:15.883Z,85.14
2019-05-18T02:23:15.853Z,85.40
2019-05-18T02:24:15.836Z,85.64
2019-05-18T02:25:15.827Z,85.34
2019-05-18T02:26:15.811Z,85.55
2019-05-18T02:27:15.830Z,85.44
2019-05-18T02:28:15.790Z,85.55
2019-05-18T02:29:15.791Z,85.75
2019-05-18T02:30:17.479Z,85.96
2019-05-18T02:31:15.763Z,85.55
2019-05-18T02:32:15.780Z,85.58
2019-05-18T02:33:15.740Z,85.69
2019-05-18T02:34:15.735Z,85.99
2019-05-18T02:35:15.716Z,86.75
2019-05-18T02:36:15.707Z,86.85
2019-05-18T02:37:15.728Z,87.47
2019-05-18T02:38:15.689Z,86.85
2019-05-18T02:39:15.675Z,86.75
2019-05-18T02:40:15.666Z,86.81
2019-05-18T02:41:15.653Z,86.40
2019-05-18T02:42:15.675Z,86.96
2019-05-18T02:43:15.637Z,86.65
2019-05-18T02:44:15.620Z,87.16
2019-05-18T02:45:15.608Z,86.65
2019-05-18T02:46:15.604Z,86.96
2019-05-18T02:47:15.620Z,86.75
2019-05-18T02:48:15.588Z,87.12
2019-05-18T02:49:15.612Z,87.22
2019-05-18T02:50:15.555Z,85.99
2019-05-18T02:51:15.544Z,85.69
2019-05-18T02:52:15.584Z,85.99
2019-05-18T02:53:15.547Z,86.71
2019-05-18T02:54:15.513Z,86.61
2019-05-18T02:55:26.415Z,87.02
2019-05-18T02:56:15.495Z,87.22
2019-05-18T02:57:15.507Z,86.51
2019-05-18T02:58:15.546Z,85.99
2019-05-18T02:59:15.468Z,86.71
2019-05-18T03:00:15.446Z,86.55
2019-05-18T03:01:15.439Z,86.44
2019-05-18T03:02:15.470Z,87.06
2019-05-18T03:03:15.426Z,88.29
2019-05-18T03:04:15.413Z,88.59
2019-05-18T03:05:15.394Z,86.85
2019-05-18T03:06:15.387Z,87.37
2019-05-18T03:07:15.410Z,87.37
2019-05-18T03:08:15.366Z,86.85
2019-05-18T03:09:15.356Z,87.67
2019-05-18T03:10:15.347Z,87.57
2019-05-18T03:11:15.336Z,88.18
2019-05-18T03:12:15.360Z,87.88
2019-05-18T03:13:15.318Z,87.57
2019-05-18T03:14:15.302Z,87.57
2019-05-18T03:15:15.298Z,88.02
2019-05-18T03:16:15.298Z,88.33
2019-05-18T03:17:15.310Z,88.08
2019-05-18T03:18:15.272Z,88.02
2019-05-18T03:19:15.247Z,88.08
2019-05-18T03:20:15.235Z,87.98
2019-05-18T03:21:15.231Z,88.12
2019-05-18T03:22:15.248Z,88.02
2019-05-18T03:23:15.203Z,87.98
2019-05-18T03:24:15.197Z,88.02
2019-05-18T03:25:15.183Z,88.84
2019-05-18T03:26:15.174Z,88.43
2019-05-18T03:27:15.194Z,88.53
2019-05-18T03:28:15.154Z,88.84
2019-05-18T03:29:15.139Z,88.18
2019-05-18T03:30:15.193Z,88.43
2019-05-18T03:31:15.140Z,88.84
2019-05-18T03:32:15.183Z,88.43
2019-05-18T03:33:15.100Z,88.43
2019-05-18T03:34:15.095Z,89.25
2019-05-18T03:35:15.075Z,88.84
2019-05-18T03:36:15.070Z,89.87
2019-05-18T03:37:15.083Z,89.04
2019-05-18T03:38:15.116Z,89.15
2019-05-18T03:39:15.034Z,88.94
2019-05-18T03:40:15.036Z,88.74
2019-05-18T03:41:15.011Z,88.70
2019-05-18T03:42:15.033Z,88.90
2019-05-18T03:43:14.998Z,88.64
2019-05-18T03:44:14.982Z,88.43
2019-05-18T03:45:14.976Z,88.84
2019-05-18T03:46:14.963Z,89.15
2019-05-18T03:47:14.995Z,89.15
2019-05-18T03:48:14.943Z,89.25
2019-05-18T03:49:26.447Z,89.90
2019-05-18T03:50:15.924Z,90.11
2019-05-18T03:51:14.905Z,89.81
2019-05-18T03:52:14.920Z,90.28
2019-05-18T03:53:18.135Z,89.56
2019-05-18T03:54:14.874Z,89.36
2019-05-18T03:55:14.864Z,88.84
2019-05-18T03:56:14.852Z,88.59
2019-05-18T03:57:14.869Z,88.39
2019-05-18T03:58:14.835Z,88.18
2019-05-18T03:59:14.827Z,88.08
2019-05-18T04:00:14.829Z,88.14
2019-05-18T04:01:14.800Z,88.18
2019-05-18T04:02:14.818Z,88.29
2019-05-18T04:03:14.783Z,87.98
2019-05-18T04:04:18.341Z,88.14
2019-05-18T04:05:14.760Z,87.77
2019-05-18T04:06:14.763Z,87.88
2019-05-18T04:07:14.776Z,87.53
2019-05-18T04:08:14.727Z,87.73
2019-05-18T04:09:14.713Z,87.29
2019-05-18T04:10:14.702Z,87.22
2019-05-18T04:11:14.707Z,86.77
2019-05-18T04:12:14.708Z,86.98
2019-05-18T04:13:14.671Z,86.98
2019-05-18T04:14:14.664Z,86.88
2019-05-18T04:15:14.652Z,86.71
2019-05-18T04:16:14.641Z,87.43
2019-05-18T04:17:14.662Z,87.53
2019-05-18T04:18:14.623Z,87.53
2019-05-18T04:19:14.609Z,87.12
2019-05-18T04:20:14.599Z,87.43
2019-05-18T04:21:14.582Z,87.70
2019-05-18T04:22:14.606Z,86.98
2019-05-18T04:23:14.569Z,86.81
2019-05-18T04:24:14.556Z,86.77
2019-05-18T04:25:14.546Z,86.98
2019-05-18T04:26:14.543Z,86.67
2019-05-18T04:27:14.553Z,86.88
2019-05-18T04:28:14.519Z,86.98
2019-05-18T04:29:14.502Z,86.67
2019-05-18T04:30:14.489Z,86.88
2019-05-18T04:31:14.484Z,86.26
2019-05-18T04:32:14.505Z,86.67
2019-05-18T04:33:14.479Z,86.46
2019-05-18T04:34:14.452Z,86.46
2019-05-18T04:35:14.435Z,86.57
2019-05-18T04:36:14.422Z,86.98
2019-05-18T04:37:14.440Z,86.63
2019-05-18T04:38:14.407Z,86.67
2019-05-18T04:39:14.398Z,87.38
2019-05-18T04:40:14.397Z,86.83
2019-05-18T04:41:14.373Z,86.63
2019-05-18T04:42:14.384Z,87.14
2019-05-18T04:43:14.359Z,86.94
2019-05-18T04:44:14.372Z,87.38
2019-05-18T04:45:14.335Z,87.45
2019-05-18T04:46:14.324Z,86.88
2019-05-18T04:47:14.339Z,86.63
2019-05-18T04:48:14.299Z,85.83
2019-05-18T04:49:14.289Z,83.51
2019-05-18T04:50:14.278Z,81.84
2019-05-18T04:51:14.265Z,80.33
2019-05-18T04:52:14.275Z,78.93
2019-05-18T04:53:14.244Z,78.02
2019-05-18T04:54:14.239Z,78.53
2019-05-18T04:55:14.232Z,78.12
2019-05-18T04:56:14.210Z,79.27
2019-05-18T04:57:14.228Z,79.79
2019-05-18T04:58:14.255Z,78.63
2019-05-18T04:59:14.178Z,78.63
2019-05-18T05:00:14.166Z,77.91
2019-05-18T05:01:14.168Z,77.17
2019-05-18T05:02:14.202Z,76.92
2019-05-18T05:03:14.144Z,76.31
2019-05-18T05:04:14.136Z,75.91
2019-05-18T05:05:14.119Z,75.87
2019-05-18T05:06:14.106Z,75.16
2019-05-18T05:07:14.096Z,75.26
2019-05-18T05:08:14.122Z,74.76
2019-05-18T05:09:14.078Z,75.77
2019-05-18T05:10:14.071Z,75.26
2019-05-18T05:11:14.049Z,74.85
2019-05-18T05:12:14.044Z,73.70
2019-05-18T05:13:14.054Z,73.80
2019-05-18T05:14:14.021Z,74.62
2019-05-18T05:15:14.008Z,74.76
2019-05-18T05:16:14.003Z,75.43
2019-05-18T05:17:13.998Z,74.76
2019-05-18T05:18:14.009Z,75.46
2019-05-18T05:19:13.972Z,76.01
2019-05-18T05:20:19.945Z,76.28
2019-05-18T05:21:14.951Z,75.63
2019-05-18T05:22:13.934Z,74.68
2019-05-18T05:23:13.959Z,74.28
2019-05-18T05:24:13.918Z,74.28
2019-05-18T05:25:13.944Z,73.19
2019-05-18T05:26:13.894Z,72.25
2019-05-18T05:27:13.919Z,71.30
2019-05-18T05:28:13.904Z,71.13
2019-05-18T05:29:13.864Z,71.73
2019-05-18T05:30:13.930Z,72.31
2019-05-18T05:31:13.844Z,69.68
2019-05-18T05:32:13.831Z,70.28
2019-05-18T05:33:13.847Z,71.40
2019-05-18T05:34:13.808Z,71.00
2019-05-18T05:35:13.794Z,71.23
2019-05-18T05:36:13.786Z,71.60
2019-05-18T05:37:13.785Z,71.00
2019-05-18T05:38:13.792Z,70.69
2019-05-18T05:39:13.756Z,69.84
2019-05-18T05:40:13.739Z,69.44
2019-05-18T05:41:16.702Z,70.45
2019-05-18T05:42:13.747Z,70.21
2019-05-18T05:43:13.753Z,69.65
2019-05-18T05:44:13.699Z,67.32
2019-05-18T05:45:13.695Z,68.26
2019-05-18T05:46:13.687Z,67.32
2019-05-18T05:47:13.671Z,67.69
2019-05-18T05:48:13.690Z,66.98
2019-05-18T05:49:13.643Z,67.59
2019-05-18T05:50:13.636Z,67.49
2019-05-18T05:51:13.627Z,67.32
2019-05-18T05:52:13.625Z,67.11
2019-05-18T05:53:13.628Z,67.68
2019-05-18T05:54:13.599Z,69.10
2019-05-18T05:55:13.583Z,67.59
2019-05-18T05:56:13.571Z,65.50
2019-05-18T05:57:13.560Z,65.37
2019-05-18T05:58:13.595Z,63.93
2019-05-18T05:59:13.540Z,64.94
2019-05-18T06:00:13.539Z,63.82
2019-05-18T06:01:13.516Z,64.13
2019-05-18T06:02:13.508Z,64.23
2019-05-18T06:03:13.518Z,64.17
2019-05-18T06:04:13.487Z,64.26
2019-05-18T06:05:13.488Z,64.13
2019-05-18T06:06:13.463Z,65.24
2019-05-18T06:07:13.459Z,63.96
2019-05-18T06:08:13.470Z,62.32
2019-05-18T06:09:13.439Z,61.18
2019-05-18T06:10:13.428Z,60.65
2019-05-18T06:11:13.418Z,60.05
2019-05-18T06:12:13.400Z,59.48
2019-05-18T06:13:13.415Z,58.18
2019-05-18T06:14:13.379Z,60.35
2019-05-18T06:15:13.369Z,58.55
2019-05-18T06:16:13.363Z,59.69
2019-05-18T06:17:13.354Z,59.16
2019-05-18T06:18:13.372Z,57.88
2019-05-18T06:19:13.328Z,60.35
2019-05-18T06:20:13.320Z,60.65
2019-05-18T06:21:13.310Z,59.92
2019-05-18T06:22:13.301Z,58.86
2019-05-18T06:23:13.312Z,58.45
2019-05-18T06:24:13.277Z,60.22
2019-05-18T06:25:13.265Z,60.29
2019-05-18T06:26:13.259Z,58.29
2019-05-18T06:27:13.242Z,57.92
2019-05-18T06:28:13.258Z,57.19
2019-05-18T06:29:13.219Z,56.96
2019-05-18T06:30:13.206Z,56.56
2019-05-18T06:31:13.202Z,57.37
2019-05-18T06:32:13.185Z,55.88
2019-05-18T06:33:13.230Z,58.02
2019-05-18T06:34:13.166Z,57.52
2019-05-18T06:35:13.154Z,59.26
2019-05-18T06:36:13.155Z,59.23
2019-05-18T06:37:13.151Z,57.79
2019-05-18T06:38:13.123Z,57.39
2019-05-18T06:39:13.143Z,57.90
2019-05-18T06:40:13.104Z,56.54
2019-05-18T06:41:13.136Z,54.55
2019-05-18T06:42:13.087Z,54.97
2019-05-18T06:43:13.088Z,55.18
2019-05-18T06:44:13.098Z,54.60
2019-05-18T06:45:13.056Z,55.40
2019-05-18T06:46:13.045Z,55.30
2019-05-18T06:47:13.033Z,55.00
2019-05-18T06:48:13.021Z,55.38
2019-05-18T06:49:13.034Z,56.76
2019-05-18T06:50:13.366Z,57.37
2019-05-18T06:51:12.996Z,58.45
2019-05-18T06:52:12.975Z,58.68
2019-05-18T06:53:12.970Z,59.95
2019-05-18T06:54:12.997Z,61.39
2019-05-18T06:55:12.947Z,60.52
2019-05-18T06:56:12.932Z,60.29
2019-05-18T06:57:12.923Z,60.19
2019-05-18T06:58:12.909Z,60.29
2019-05-18T06:59:16.312Z,57.70
2019-05-18T07:00:13.465Z,57.70
2019-05-18T07:01:12.882Z,56.30
2019-05-18T07:02:12.868Z,54.45
2019-05-18T07:03:12.891Z,53.42
2019-05-18T07:04:12.875Z,52.92
2019-05-18T07:05:12.840Z,54.22
2019-05-18T07:06:12.826Z,53.05
2019-05-18T07:07:12.816Z,54.60
2019-05-18T07:08:12.806Z,54.55
2019-05-18T07:09:14.382Z,54.25
2019-05-18T07:10:12.784Z,54.82
2019-05-18T07:11:12.775Z,53.69
2019-05-18T07:12:12.762Z,53.07
2019-05-18T07:13:12.754Z,54.22
2019-05-18T07:14:24.940Z,54.20
2019-05-18T07:15:13.727Z,54.02
2019-05-18T07:16:12.721Z,54.58
2019-05-18T07:17:12.714Z,54.85
2019-05-18T07:18:12.698Z,54.35
2019-05-18T07:19:12.730Z,53.82
2019-05-18T07:20:12.678Z,54.35
2019-05-18T07:21:21.849Z,53.69
2019-05-18T07:22:13.661Z,53.74
2019-05-18T07:23:12.647Z,52.02
2019-05-18T07:24:12.633Z,51.92
2019-05-18T07:25:12.652Z,53.05
2019-05-18T07:26:12.617Z,52.39
2019-05-18T07:27:12.607Z,51.47
2019-05-18T07:28:12.594Z,51.37
2019-05-18T07:29:12.581Z,51.17
2019-05-18T07:30:12.595Z,51.94
2019-05-18T07:31:12.562Z,51.82
2019-05-18T07:32:12.558Z,51.69
2019-05-18T07:33:12.546Z,51.02
2019-05-18T07:34:12.527Z,51.50
2019-05-18T07:35:12.549Z,50.04
2019-05-18T07:36:12.515Z,49.40
2019-05-18T07:37:12.510Z,52.17
2019-05-18T07:38:12.497Z,51.87
2019-05-18T07:39:12.478Z,51.64
2019-05-18T07:40:12.495Z,51.50
2019-05-18T07:41:12.466Z,52.09
2019-05-18T07:42:12.447Z,49.52
2019-05-18T07:43:12.435Z,50.39
2019-05-18T07:44:12.442Z,50.12
2019-05-18T07:45:12.459Z,50.67
2019-05-18T07:46:12.408Z,50.65
2019-05-18T07:47:12.410Z,51.20
2019-05-18T07:48:12.382Z,50.15
2019-05-18T07:49:12.373Z,51.25
2019-05-18T07:50:12.387Z,50.65
2019-05-18T07:51:12.350Z,51.15
2019-05-18T07:52:12.354Z,52.19
2019-05-18T07:53:12.343Z,51.87
2019-05-18T07:54:12.318Z,51.29
2019-05-18T07:55:12.334Z,49.35
2019-05-18T07:56:12.297Z,49.40
2019-05-18T07:57:12.295Z,47.08
2019-05-18T07:58:12.287Z,47.40
2019-05-18T07:59:12.268Z,46.66
2019-05-18T08:00:12.290Z,47.50
2019-05-18T08:01:12.250Z,49.00
2019-05-18T08:02:12.239Z,49.25
2019-05-18T08:03:12.226Z,47.71
2019-05-18T08:04:12.239Z,47.53
2019-05-18T08:05:12.232Z,47.38
2019-05-18T08:06:12.204Z,46.85
2019-05-18T08:07:12.190Z,48.55
2019-05-18T08:08:12.182Z,49.25
2019-05-18T08:09:12.183Z,48.68
2019-05-18T08:10:12.182Z,48.82
2019-05-18T08:11:12.148Z,50.39
2019-05-18T08:12:12.135Z,51.15
2019-05-18T08:13:12.133Z,50.57
2019-05-18T08:14:12.114Z,47.97
2019-05-18T08:15:12.134Z,50.09
2019-05-18T08:16:12.095Z,51.09
2019-05-18T08:17:12.082Z,49.09
2019-05-18T08:18:12.080Z,50.72
2019-05-18T08:19:12.074Z,49.02
2019-05-18T08:20:12.085Z,46.64
2019-05-18T08:21:12.047Z,46.06
2019-05-18T08:22:12.086Z,45.96
2019-05-18T08:23:12.026Z,44.92
2019-05-18T08:24:12.021Z,45.87
2019-05-18T08:25:12.043Z,44.52
2019-05-18T08:26:11.994Z,43.40
2019-05-18T08:27:11.983Z,43.98
2019-05-18T08:28:11.968Z,44.37
2019-05-18T08:29:11.960Z,40.96
2019-05-18T08:30:11.949Z,41.24
2019-05-18T08:31:11.965Z,39.58
2019-05-18T08:32:11.925Z,39.20
2019-05-18T08:33:11.917Z,37.74
2019-05-18T08:34:11.907Z,37.43
2019-05-18T08:35:11.918Z,37.03
2019-05-18T08:36:11.937Z,35.50
2019-05-18T08:37:11.877Z,35.41
2019-05-18T08:38:11.870Z,35.17
2019-05-18T08:39:11.877Z,35.42
2019-05-18T08:40:11.855Z,36.23
2019-05-18T08:41:11.881Z,37.60
2019-05-18T08:42:11.845Z,39.01
2019-05-18T08:43:11.824Z,38.46
2019-05-18T08:44:11.809Z,34.81
2019-05-18T08:45:11.923Z,35.93
2019-05-18T08:46:11.841Z,37.12
2019-05-18T08:47:11.783Z,36.51
2019-05-18T08:48:11.774Z,37.07
2019-05-18T08:49:11.760Z,37.53
2019-05-18T08:50:11.751Z,38.64
2019-05-18T08:51:11.770Z,39.92
2019-05-18T08:52:11.731Z,40.64
2019-05-18T08:53:11.724Z,39.07
2019-05-18T08:54:11.710Z,39.37
2019-05-18T08:55:14.995Z,39.69
2019-05-18T08:56:11.722Z,40.52
2019-05-18T08:57:11.685Z,41.93
2019-05-18T08:58:11.671Z,40.41
2019-05-18T08:59:11.662Z,39.81
2019-05-18T09:00:11.652Z,40.38
2019-05-18T09:01:11.669Z,38.24
2019-05-18T09:02:11.633Z,37.87
2019-05-18T09:03:11.623Z,38.62
2019-05-18T09:04:11.615Z,37.10
2019-05-18T09:05:11.614Z,37.81
2019-05-18T09:06:11.660Z,37.89
2019-05-18T09:07:11.587Z,38.72
2019-05-18T09:08:11.569Z,38.17
2019-05-18T09:09:11.619Z,38.88
2019-05-18T09:10:11.553Z,37.41
2019-05-18T09:11:11.581Z,36.87
2019-05-18T09:12:11.535Z,35.89
2019-05-18T09:13:11.523Z,34.97
2019-05-18T09:14:11.514Z,35.38
2019-05-18T09:15:11.505Z,35.86
2019-05-18T09:16:11.507Z,35.24
2019-05-18T09:17:11.512Z,34.94
2019-05-18T09:18:11.477Z,34.39
2019-05-18T09:19:11.465Z,35.53
2019-05-18T09:20:11.456Z,35.04
2019-05-18T09:21:11.449Z,35.35
2019-05-18T09:22:22.813Z,37.96
2019-05-18T09:23:12.427Z,40.46
2019-05-18T09:24:11.417Z,39.47
2019-05-18T09:25:11.426Z,39.83
2019-05-18T09:26:11.399Z,38.54
2019-05-18T09:27:11.419Z,38.09
2019-05-18T09:28:11.387Z,37.79
2019-05-18T09:29:11.373Z,36.61
2019-05-18T09:30:11.367Z,35.97
2019-05-18T09:31:11.351Z,34.30
2019-05-18T09:32:11.379Z,34.74
2019-05-18T09:33:11.334Z,34.33
2019-05-18T09:34:11.325Z,35.24
2019-05-18T09:35:11.319Z,34.41
2019-05-18T09:36:11.337Z,34.08
2019-05-18T09:37:11.325Z,34.12
2019-05-18T09:38:11.289Z,34.12
2019-05-18T09:39:11.279Z,34.00
2019-05-18T09:40:11.270Z,33.26
2019-05-18T09:41:11.268Z,33.13
2019-05-18T09:42:11.277Z,33.33
2019-05-18T09:43:11.248Z,33.15
2019-05-18T09:44:11.242Z,35.02
2019-05-18T09:45:11.219Z,35.85
2019-05-18T09:46:11.213Z,36.54
2019-05-18T09:47:11.230Z,36.76
2019-05-18T09:48:11.190Z,36.98
2019-05-18T09:49:11.188Z,36.71
2019-05-18T09:50:11.185Z,36.92
2019-05-18T09:51:11.166Z,34.81
2019-05-18T09:52:11.180Z,34.83
2019-05-18T09:53:11.152Z,36.64
2019-05-18T09:54:11.135Z,37.41
2019-05-18T09:55:11.128Z,37.77
2019-05-18T09:56:11.128Z,34.84
2019-05-18T09:57:11.138Z,34.53
2019-05-18T09:58:11.100Z,34.17
2019-05-18T09:59:11.100Z,36.47
2019-05-18T10:00:11.084Z,35.86
2019-05-18T10:01:11.077Z,34.86
2019-05-18T10:02:11.093Z,35.49
2019-05-18T10:03:11.067Z,38.68
2019-05-18T10:04:11.057Z,37.90
2019-05-18T10:05:11.044Z,39.61
2019-05-18T10:06:11.035Z,39.54
2019-05-18T10:07:11.053Z,39.06
2019-05-18T10:08:11.013Z,35.73
2019-05-18T10:09:11.003Z,36.71
2019-05-18T10:10:11.034Z,35.28
2019-05-18T10:11:10.996Z,35.86
2019-05-18T10:12:11.013Z,37.17
2019-05-18T10:13:10.972Z,39.41
2019-05-18T10:14:10.962Z,38.70
2019-05-18T10:15:10.951Z,38.07
2019-05-18T10:16:10.943Z,37.65
2019-05-18T10:17:10.986Z,38.18
2019-05-18T10:18:10.926Z,39.55
2019-05-18T10:19:10.920Z,37.28
2019-05-18T10:20:10.910Z,35.25
2019-05-18T10:21:10.899Z,35.09
2019-05-18T10:22:10.922Z,37.17
2019-05-18T10:23:13.679Z,37.59
2019-05-18T10:24:10.873Z,38.26
2019-05-18T10:25:10.867Z,39.17
2019-05-18T10:26:10.855Z,39.49
2019-05-18T10:27:10.870Z,37.73
2019-05-18T10:28:10.838Z,37.34
2019-05-18T10:29:10.826Z,37.12
2019-05-18T10:30:10.823Z,36.49
2019-05-18T10:31:10.835Z,34.71
2019-05-18T10:32:10.834Z,35.22
2019-05-18T10:33:10.795Z,36.08
2019-05-18T10:34:10.790Z,34.74
2019-05-18T10:35:10.813Z,36.59
2019-05-18T10:36:11.828Z,35.66
2019-05-18T10:37:10.786Z,35.40
2019-05-18T10:38:10.747Z,34.83
2019-05-18T10:39:10.738Z,36.52
2019-05-18T10:40:10.727Z,36.13
2019-05-18T10:41:10.740Z,35.21
2019-05-18T10:42:10.732Z,35.25
2019-05-18T10:43:10.719Z,34.25
2019-05-18T10:44:10.691Z,34.31
2019-05-18T10:45:10.695Z,33.77
2019-05-18T10:46:10.671Z,34.59
2019-05-18T10:47:10.688Z,35.02
2019-05-18T10:48:10.670Z,35.57
2019-05-18T10:49:10.644Z,36.07
2019-05-18T10:50:10.634Z,36.05
2019-05-18T10:51:10.623Z,36.90
2019-05-18T10:52:10.638Z,38.75
2019-05-18T10:53:10.608Z,38.65
2019-05-18T10:54:10.603Z,38.57
2019-05-18T10:55:10.593Z,37.96
2019-05-18T10:56:10.580Z,37.62
2019-05-18T10:57:10.598Z,37.11
2019-05-18T10:58:10.557Z,36.16
2019-05-18T10:59:17.047Z,35.42
2019-05-18T11:00:10.591Z,33.39
2019-05-18T11:01:10.535Z,32.04
2019-05-18T11:02:10.556Z,31.92
2019-05-18T11:03:10.512Z,30.98
2019-05-18T11:04:10.504Z,30.27
2019-05-18T11:05:10.494Z,29.83
2019-05-18T11:06:10.484Z,31.95
2019-05-18T11:07:10.498Z,35.55
2019-05-18T11:08:10.467Z,34.13
2019-05-18T11:09:10.515Z,35.06
2019-05-18T11:10:10.466Z,34.08
2019-05-18T11:11:10.440Z,33.98
2019-05-18T11:12:10.459Z,34.56
2019-05-18T11:13:10.420Z,35.04
2019-05-18T11:14:10.411Z,36.86
2019-05-18T11:15:10.406Z,35.85
2019-05-18T11:16:10.431Z,33.92
2019-05-18T11:17:10.411Z,34.41
2019-05-18T11:18:10.373Z,32.06
2019-05-18T11:19:10.367Z,31.44
2019-05-18T11:20:10.359Z,30.93
2019-05-18T11:21:10.346Z,29.63
2019-05-18T11:22:10.399Z,30.11
2019-05-18T11:23:10.331Z,29.69
2019-05-18T11:24:10.319Z,30.21
2019-05-18T11:25:10.309Z,31.98
2019-05-18T11:26:10.332Z,32.90
2019-05-18T11:27:10.339Z,33.11
2019-05-18T11:28:10.287Z,32.77
2019-05-18T11:29:10.283Z,32.85
2019-05-18T11:30:10.502Z,32.78
2019-05-18T11:31:10.263Z,34.31
2019-05-18T11:32:10.285Z,33.95
2019-05-18T11:33:10.239Z,32.90
2019-05-18T11:34:10.242Z,34.97
2019-05-18T11:35:10.244Z,33.69
2019-05-18T11:36:10.214Z,34.00
2019-05-18T11:37:10.235Z,33.95
2019-05-18T11:38:10.206Z,36.61
2019-05-18T11:39:10.191Z,37.56
2019-05-18T11:40:10.299Z,37.84
2019-05-18T11:41:10.170Z,37.94
2019-05-18T11:42:10.189Z,38.65
2019-05-18T11:43:10.152Z,38.37
2019-05-18T11:44:10.946Z,36.20
2019-05-18T11:45:10.145Z,34.51
2019-05-18T11:46:10.131Z,33.18
2019-05-18T11:47:10.148Z,32.90
2019-05-18T11:48:10.118Z,32.06
2019-05-18T11:49:10.101Z,32.06
2019-05-18T11:50:10.090Z,33.08
2019-05-18T11:51:10.078Z,32.06
2019-05-18T11:52:10.099Z,32.07
2019-05-18T11:53:10.065Z,33.92
2019-05-18T11:54:10.058Z,34.33
2019-05-18T11:55:10.042Z,35.02
2019-05-18T11:56:10.045Z,34.64
2019-05-18T11:57:10.028Z,35.02
2019-05-18T11:58:10.042Z,33.85
2019-05-18T11:59:10.024Z,33.04
2019-05-18T12:00:10.001Z,32.59
2019-05-18T12:01:09.995Z,32.28
2019-05-18T12:02:10.076Z,31.19
2019-05-18T12:03:10.008Z,29.46
2019-05-18T12:04:09.966Z,30.58
2019-05-18T12:05:09.956Z,30.47
2019-05-18T12:06:09.950Z,29.83
2019-05-18T12:07:09.943Z,29.49
2019-05-18T12:08:09.961Z,28.30
2019-05-18T12:09:09.922Z,27.70
2019-05-18T12:10:09.916Z,27.80
2019-05-18T12:11:09.904Z,28.92
2019-05-18T12:12:09.891Z,31.78
2019-05-18T12:13:09.912Z,32.10
2019-05-18T12:14:09.882Z,31.38
2019-05-18T12:15:09.869Z,33.04
2019-05-18T12:16:09.862Z,32.98
2019-05-18T12:17:09.853Z,33.21
2019-05-18T12:18:09.872Z,32.09
2019-05-18T12:19:09.854Z,30.75
2019-05-18T12:20:09.915Z,28.86
2019-05-18T12:21:09.815Z,29.69
2019-05-18T12:22:09.806Z,30.48
2019-05-18T12:23:09.848Z,31.43
2019-05-18T12:24:15.513Z,30.98
2019-05-18T12:25:10.778Z,30.26
2019-05-18T12:26:09.774Z,29.86
2019-05-18T12:27:09.768Z,29.48
2019-05-18T12:28:09.785Z,29.06
2019-05-18T12:29:09.741Z,29.17
2019-05-18T12:30:09.736Z,29.05
2019-05-18T12:31:09.730Z,29.31
2019-05-18T12:32:09.717Z,28.41
2019-05-18T12:33:09.734Z,27.34
2019-05-18T12:34:09.701Z,27.82
2019-05-18T12:35:09.691Z,26.89
2019-05-18T12:36:09.682Z,27.32
2019-05-18T12:37:09.680Z,27.23
2019-05-18T12:38:09.694Z,27.84
2019-05-18T12:39:09.676Z,27.76
2019-05-18T12:40:09.655Z,28.96
2019-05-18T12:41:09.645Z,27.75
2019-05-18T12:42:09.632Z,27.67
2019-05-18T12:43:09.663Z,27.62
2019-05-18T12:44:09.639Z,27.05
2019-05-18T12:45:09.608Z,28.51
2019-05-18T12:46:09.596Z,30.69
2019-05-18T12:47:09.586Z,29.06
2019-05-18T12:48:09.606Z,27.94
2019-05-18T12:49:09.572Z,28.93
2019-05-18T12:50:09.613Z,27.75
2019-05-18T12:51:09.562Z,27.53
2019-05-18T12:52:09.541Z,27.06